Time;durP1;ratioP1;P1;durP2;ratioP2;P2;SDS_P1;SDS_P2;PMS_P1;PMS_P2;Temp;Humidity;BMP_temperature;BMP_pressure;BME280_temperature;BME280_humidity;BME280_pressure;Samples;Min_cycle;Max_cycle;Signal;HPM_P1;HPM_P2
2023/01/08 00:00:08;;;;;;;;;11.75;7.75;;;;;12.18;68.31;100127.59;5020053;28;45186;-62
2023/01/08 00:02:33;;;;;;;;;8.00;7.25;;;;;12.21;68.07;100113.47;5020186;28;45463;-62
2023/01/08 00:04:59;;;;;;;;;8.50;6.00;;;;;12.15;68.40;100111.03;5019533;28;45610;-62
2023/01/08 00:07:24;;;;;;;;;10.75;7.75;;;;;12.21;68.41;100108.22;5019926;28;46303;-62
2023/01/08 00:09:51;;;;;;;;;7.00;6.00;;;;;12.19;68.25;100096.88;5019800;28;45379;-62
2023/01/08 00:12:16;;;;;;;;;10.75;7.75;;;;;12.08;68.41;100088.44;5019901;28;45372;-62
2023/01/08 00:14:41;;;;;;;;;7.75;7.75;;;;;12.15;68.47;100093.47;5019657;28;45243;-62
2023/01/08 00:17:07;;;;;;;;;8.75;6.25;;;;;12.19;68.29;100089.81;5019951;28;45377;-62
2023/01/08 00:19:33;;;;;;;;;8.00;7.00;;;;;12.18;68.29;100090.72;5019465;28;45340;-62
2023/01/08 00:21:58;;;;;;;;;7.75;6.75;;;;;12.19;68.23;100074.03;5019939;28;45371;-62
2023/01/08 00:24:23;;;;;;;;;8.00;6.50;;;;;12.09;68.43;100074.34;5019755;28;45233;-62
2023/01/08 00:26:48;;;;;;;;;7.50;7.00;;;;;12.11;68.58;100067.25;5019645;28;45213;-62
2023/01/08 00:29:14;;;;;;;;;6.00;5.75;;;;;12.11;68.40;100083.06;5018442;28;45263;-62
2023/01/08 00:31:40;;;;;;;;;7.00;6.25;;;;;12.16;68.38;100086.41;5020003;28;45277;-61
2023/01/08 00:34:05;;;;;;;;;10.75;5.75;;;;;12.16;68.30;100079.41;5019061;28;45359;-62
2023/01/08 00:36:30;;;;;;;;;7.50;7.50;;;;;12.22;68.41;100099.41;5034900;28;47042;-62
2023/01/08 00:38:58;;;;;;;;;4.50;4.25;;;;;12.15;68.09;100082.06;5019483;28;45249;-62
2023/01/08 00:41:24;;;;;;;;;6.75;6.00;;;;;12.10;67.74;100083.97;5019467;28;45296;-62
2023/01/08 00:43:49;;;;;;;;;7.00;6.75;;;;;12.07;68.44;100074.41;5020619;28;45507;-62
2023/01/08 00:46:14;;;;;;;;;7.50;6.25;;;;;12.06;68.23;100063.91;5023114;28;45487;-62
2023/01/08 00:48:40;;;;;;;;;6.75;6.75;;;;;12.14;68.33;100072.44;5022789;28;45515;-62
2023/01/08 00:51:07;;;;;;;;;5.50;5.00;;;;;12.18;68.28;100068.81;5023295;28;45241;-62
2023/01/08 00:53:32;;;;;;;;;5.00;3.75;;;;;12.14;68.02;100062.78;5022849;28;45520;-61
2023/01/08 00:55:59;;;;;;;;;6.00;4.00;;;;;12.15;68.02;100064.50;5022787;28;46275;-61
2023/01/08 00:58:24;;;;;;;;;4.00;4.00;;;;;12.10;68.21;100068.16;5022844;28;45296;-62
2023/01/08 01:00:50;;;;;;;;;7.75;6.00;;;;;12.12;68.05;100061.94;5023006;28;45351;-62
2023/01/08 01:03:15;;;;;;;;;7.00;6.00;;;;;12.07;68.53;100058.59;5022678;28;45600;-62
2023/01/08 01:05:40;;;;;;;;;6.00;5.50;;;;;12.08;68.22;100070.00;5022903;28;45208;-62
2023/01/08 01:08:06;;;;;;;;;6.00;4.50;;;;;12.04;68.16;100066.59;5022996;28;45260;-62
2023/01/08 01:10:31;;;;;;;;;5.50;5.25;;;;;12.06;67.98;100048.97;5022750;28;45330;-61
2023/01/08 01:12:56;;;;;;;;;8.00;5.25;;;;;12.00;68.06;100054.44;5022657;28;45539;-63
2023/01/08 01:15:22;;;;;;;;;2.75;2.75;;;;;12.01;68.19;100046.50;5022443;28;45344;-62
2023/01/08 01:17:47;;;;;;;;;8.25;6.00;;;;;12.01;68.04;100057.03;5022467;28;45312;-62
2023/01/08 01:20:15;;;;;;;;;5.75;4.75;;;;;11.96;68.09;100051.06;5022602;28;45401;-62
2023/01/08 01:22:41;;;;;;;;;4.50;4.50;;;;;12.02;68.00;100056.13;5022619;28;45340;-62
2023/01/08 01:25:07;;;;;;;;;3.75;3.75;;;;;12.03;67.73;100047.28;5022293;28;46174;-62
2023/01/08 01:27:32;;;;;;;;;6.75;5.25;;;;;12.05;67.76;100043.75;5022298;28;45362;-62
2023/01/08 01:29:58;;;;;;;;;4.00;3.00;;;;;11.93;67.95;100068.69;5021277;28;45323;-62
2023/01/08 01:32:23;;;;;;;;;8.00;6.50;;;;;11.95;67.61;100041.38;5022433;28;45607;-62
2023/01/08 01:34:48;;;;;;;;;4.00;4.00;;;;;11.83;67.97;100031.22;5022019;28;46184;-62
2023/01/08 01:37:14;;;;;;;;;5.00;5.00;;;;;11.88;67.87;100053.00;5022379;28;45189;-62
2023/01/08 01:39:42;;;;;;;;;4.75;4.00;;;;;11.89;67.75;100046.84;5022606;28;45246;-62
2023/01/08 01:42:38;;;;;;;;;6.00;4.00;;;;;11.97;67.44;100042.22;5022181;28;45281;-62
2023/01/08 01:44:57;;;;;;;;;6.00;2.75;;;;;11.90;67.81;100048.56;5022127;28;45345;-62
2023/01/08 01:47:28;;;;;;;;;4.25;3.75;;;;;11.92;67.54;100052.00;5021946;28;45314;-62
2023/01/08 01:50:00;;;;;;;;;3.75;3.75;;;;;11.86;67.97;100045.16;5022123;28;45391;-62
2023/01/08 01:52:29;;;;;;;;;5.00;3.00;;;;;11.91;67.53;100062.59;5022041;28;45496;-62
2023/01/08 01:54:57;;;;;;;;;3.50;2.00;;;;;11.90;67.80;100059.09;5021113;28;46133;-62
2023/01/08 01:57:23;;;;;;;;;6.75;6.00;;;;;11.93;67.51;100058.13;5020489;28;46057;-62
2023/01/08 01:59:49;;;;;;;;;4.50;4.00;;;;;11.89;67.65;100057.38;5022157;28;45332;-62
2023/01/08 02:02:14;;;;;;;;;4.25;3.75;;;;;11.83;67.94;100052.28;5021844;28;45171;-62
2023/01/08 02:04:40;;;;;;;;;5.00;5.00;;;;;11.79;68.15;100061.19;5021589;28;45936;-62
2023/01/08 02:07:14;;;;;;;;;3.25;2.25;;;;;11.81;67.68;100062.00;5021692;28;45443;-62
2023/01/08 02:10:00;;;;;;;;;5.25;4.75;;;;;11.83;67.94;100068.09;5022145;28;45225;-62
2023/01/08 02:12:32;;;;;;;;;4.00;4.00;;;;;11.80;67.74;100076.09;5000806;28;45457;-62
2023/01/08 02:15:10;;;;;;;;;5.75;4.00;;;;;11.77;67.85;100077.00;5019278;28;46487;-62
2023/01/08 02:17:42;;;;;;;;;2.25;2.00;;;;;11.74;67.78;100063.97;5020826;28;45264;-62
2023/01/08 02:20:12;;;;;;;;;5.00;4.00;;;;;11.66;68.23;100071.19;5019329;28;45520;-62
2023/01/08 02:22:45;;;;;;;;;4.00;2.75;;;;;11.63;68.19;100068.69;5020846;28;45217;-62
2023/01/08 02:25:27;;;;;;;;;3.50;2.75;;;;;11.71;67.81;100067.53;5019446;28;46272;-62
2023/01/08 02:27:55;;;;;;;;;2.75;2.75;;;;;11.73;67.80;100050.84;5020519;28;45407;-62
2023/01/08 02:30:21;;;;;;;;;3.75;3.00;;;;;11.73;67.69;100070.13;5013042;28;45328;-62
2023/01/08 02:32:47;;;;;;;;;5.75;5.00;;;;;11.73;67.57;100059.59;5020251;28;45415;-62
2023/01/08 02:35:12;;;;;;;;;3.75;2.00;;;;;11.74;67.52;100052.56;5020199;28;45261;-62
2023/01/08 02:37:38;;;;;;;;;3.00;3.00;;;;;11.67;67.67;100050.13;5020718;28;45249;-62
2023/01/08 02:40:16;;;;;;;;;2.00;2.00;;;;;11.69;67.82;100069.34;5020459;28;45336;-62
2023/01/08 02:42:54;;;;;;;;;3.00;3.00;;;;;11.66;67.64;100055.41;5001928;28;45363;-62
2023/01/08 02:45:44;;;;;;;;;5.00;4.00;;;;;11.69;67.65;100060.59;4999734;28;45372;-62
2023/01/08 02:48:44;;;;;;;;;3.00;3.00;;;;;11.58;68.01;100041.63;4999597;28;45651;-62
2023/01/08 02:51:21;;;;;;;;;5.25;3.00;;;;;11.63;67.67;100045.00;4987280;28;45417;-62
2023/01/08 02:53:51;;;;;;;;;3.25;3.00;;;;;11.62;67.83;100049.41;5000248;28;45338;-62
2023/01/08 02:56:29;;;;;;;;;4.25;2.25;;;;;11.61;67.68;100059.94;4999897;28;47898;-63
2023/01/08 02:58:56;;;;;;;;;3.00;3.00;;;;;11.53;67.79;100060.19;5001084;28;45255;-62
2023/01/08 03:01:23;;;;;;;;;3.75;3.75;;;;;11.56;67.86;100052.22;5001317;28;45199;-62
2023/01/08 03:03:54;;;;;;;;;2.50;2.50;;;;;11.53;68.01;100054.91;4999553;28;45777;-62
2023/01/08 03:06:20;;;;;;;;;2.25;2.00;;;;;11.59;67.85;100051.25;5000760;28;46018;-62
2023/01/08 03:08:49;;;;;;;;;2.75;2.00;;;;;11.62;67.71;100054.66;5000987;28;45275;-62
2023/01/08 03:11:18;;;;;;;;;3.75;2.25;;;;;11.57;67.86;100038.13;5001152;28;45347;-62
2023/01/08 03:13:50;;;;;;;;;3.00;2.75;;;;;11.58;67.89;100037.22;5000893;28;45284;-62
2023/01/08 03:16:41;;;;;;;;;3.00;2.00;;;;;11.62;67.84;100038.00;5000786;28;46255;-62
2023/01/08 03:19:22;;;;;;;;;1.25;1.25;;;;;11.59;67.83;100033.69;4989314;28;45160;-62
2023/01/08 03:21:50;;;;;;;;;1.00;1.00;;;;;11.55;67.84;100021.53;5000877;28;45253;-61
2023/01/08 03:24:20;;;;;;;;;3.00;3.00;;;;;11.55;68.03;100022.38;5000874;28;45238;-62
2023/01/08 03:26:49;;;;;;;;;3.75;3.00;;;;;11.49;68.13;100019.09;5000688;28;45358;-62
2023/01/08 03:29:19;;;;;;;;;2.00;2.00;;;;;11.52;68.00;100032.13;5000902;28;45247;-62
2023/01/08 03:31:47;;;;;;;;;4.75;3.00;;;;;11.54;67.78;100027.69;5000914;28;45420;-62
2023/01/08 03:34:14;;;;;;;;;3.00;1.50;;;;;11.53;67.89;100023.34;5000276;28;45485;-61
2023/01/08 03:36:44;;;;;;;;;2.25;2.25;;;;;11.48;68.24;100023.50;5000810;28;45351;-62
2023/01/08 03:39:17;;;;;;;;;4.00;3.00;;;;;11.50;67.94;100021.66;5000493;28;45294;-62
2023/01/08 03:41:42;;;;;;;;;2.25;1.25;;;;;11.54;67.90;100025.06;5010634;28;45294;-62
2023/01/08 03:44:08;;;;;;;;;2.00;2.00;;;;;11.53;67.78;100015.44;5020575;28;45416;-62
2023/01/08 03:46:39;;;;;;;;;2.25;2.25;;;;;11.36;68.50;100008.06;5020347;28;45342;-62
2023/01/08 03:49:06;;;;;;;;;2.00;2.00;;;;;11.38;68.29;100007.13;5020125;28;45230;-62
2023/01/08 03:51:43;;;;;;;;;3.25;1.75;;;;;11.43;68.15;100003.47;5020459;28;45218;-62
2023/01/08 03:54:12;;;;;;;;;2.00;2.00;;;;;11.47;68.09;100008.63;5020180;28;45321;-62
2023/01/08 03:56:38;;;;;;;;;3.00;3.00;;;;;11.41;68.21;100010.53;5019966;28;45381;-62
2023/01/08 03:59:03;;;;;;;;;1.50;1.50;;;;;11.39;68.22;100000.06;5020016;28;45352;-62
2023/01/08 04:01:28;;;;;;;;;1.00;1.00;;;;;11.44;67.98;100013.94;5020396;28;45485;-62
2023/01/08 04:03:54;;;;;;;;;2.75;2.00;;;;;11.40;68.07;100012.31;5019878;28;45457;-62
2023/01/08 04:06:19;;;;;;;;;2.00;2.00;;;;;11.37;68.11;100008.00;5020059;28;46158;-62
2023/01/08 04:08:46;;;;;;;;;3.25;3.00;;;;;11.44;68.06;99997.31;5019942;28;45301;-62
2023/01/08 04:11:12;;;;;;;;;1.75;1.75;;;;;11.47;67.78;100000.72;5019958;28;45292;-62
2023/01/08 04:13:37;;;;;;;;;2.00;1.00;;;;;11.41;67.92;99997.38;5018130;28;45488;-61
2023/01/08 04:16:03;;;;;;;;;4.25;3.00;;;;;11.35;67.92;99980.03;5020002;28;46294;-62
2023/01/08 04:18:28;;;;;;;;;2.25;2.25;;;;;11.49;67.73;99983.09;5018941;28;45412;-62
2023/01/08 04:20:53;;;;;;;;;2.00;2.00;;;;;11.46;67.91;99984.97;5020101;28;45277;-61
2023/01/08 04:23:18;;;;;;;;;3.00;3.00;;;;;11.40;68.14;99969.38;5019785;28;45489;-62
2023/01/08 04:25:44;;;;;;;;;3.50;2.50;;;;;11.34;68.13;99955.47;5019886;28;45372;-61
2023/01/08 04:28:09;;;;;;;;;1.00;1.00;;;;;11.37;68.08;99960.66;5019679;28;45499;-62
2023/01/08 04:30:35;;;;;;;;;4.00;2.25;;;;;11.44;67.95;99960.47;5020003;28;45309;-62
2023/01/08 04:33:01;;;;;;;;;2.00;2.00;;;;;11.32;68.26;99956.44;5019348;28;45610;-62
2023/01/08 04:35:26;;;;;;;;;1.75;1.75;;;;;11.32;68.24;99956.44;5019788;28;45438;-61
2023/01/08 04:37:51;;;;;;;;;2.25;1.00;;;;;11.38;68.06;99959.75;5034932;28;45456;-61
2023/01/08 04:40:17;;;;;;;;;2.50;2.50;;;;;11.38;68.00;99951.00;5019924;28;45267;-62
2023/01/08 04:42:42;;;;;;;;;2.50;1.50;;;;;11.39;67.93;99960.59;5019232;28;45375;-61
2023/01/08 04:45:08;;;;;;;;;3.00;1.75;;;;;11.36;68.04;99964.19;5019817;28;45373;-62
2023/01/08 04:47:33;;;;;;;;;1.00;1.00;;;;;11.20;68.20;99948.00;5019429;28;45309;-61
2023/01/08 04:49:58;;;;;;;;;2.00;2.00;;;;;11.29;68.26;99952.13;5019619;28;45435;-62
2023/01/08 04:52:24;;;;;;;;;2.00;1.75;;;;;11.29;68.19;99938.13;5019521;28;45467;-62
2023/01/08 04:54:49;;;;;;;;;1.50;1.50;;;;;11.28;68.04;99937.28;5019493;28;46116;-60
2023/01/08 04:57:14;;;;;;;;;3.75;2.75;;;;;11.30;68.20;99937.22;5018103;28;45201;-60
2023/01/08 04:59:40;;;;;;;;;3.00;2.00;;;;;11.25;68.11;99939.97;5019694;28;45221;-60
2023/01/08 05:02:05;;;;;;;;;2.00;2.00;;;;;11.16;68.59;99927.13;5019459;28;45590;-62
2023/01/08 05:04:30;;;;;;;;;2.75;2.75;;;;;11.10;68.24;99908.88;5019243;28;45155;-65
2023/01/08 05:06:56;;;;;;;;;1.00;1.00;;;;;11.30;68.20;99932.81;5019188;28;45273;-62
2023/01/08 05:09:21;;;;;;;;;3.75;1.75;;;;;11.31;68.16;99923.19;5018376;28;45347;-62
2023/01/08 05:11:46;;;;;;;;;3.50;2.50;;;;;11.34;67.86;99921.28;5019236;28;45486;-61
2023/01/08 05:14:12;;;;;;;;;3.00;1.50;;;;;11.17;68.18;99927.06;5019243;28;45218;-62
2023/01/08 05:16:37;;;;;;;;;4.75;1.00;;;;;11.24;68.09;99916.38;5019132;28;45247;-61
2023/01/08 05:19:03;;;;;;;;;1.75;1.75;;;;;11.14;68.27;99921.03;5019354;28;45154;-61
2023/01/08 05:21:28;;;;;;;;;3.00;2.00;;;;;11.02;68.55;99924.91;5019252;28;45349;-62
2023/01/08 05:23:53;;;;;;;;;2.25;2.00;;;;;11.04;68.62;99918.69;5019233;28;46786;-61
2023/01/08 05:26:19;;;;;;;;;1.25;1.00;;;;;11.13;68.47;99922.81;5017710;28;45467;-62
2023/01/08 05:28:44;;;;;;;;;0.75;0.75;;;;;11.16;68.45;99917.44;5019469;28;45256;-61
2023/01/08 05:31:10;;;;;;;;;1.50;1.50;;;;;11.10;68.73;99929.94;5020838;28;45453;-61
2023/01/08 05:33:36;;;;;;;;;3.75;2.75;;;;;11.15;68.79;99917.50;5022303;28;46185;-62
2023/01/08 05:36:07;;;;;;;;;1.00;1.00;;;;;11.11;68.56;99921.97;5022387;28;45416;-62
2023/01/08 05:38:32;;;;;;;;;1.00;1.00;;;;;11.02;68.47;99909.97;5022633;28;45216;-61
2023/01/08 05:40:58;;;;;;;;;6.00;3.00;;;;;11.02;68.81;99911.75;5021921;28;45478;-61
2023/01/08 05:43:23;;;;;;;;;3.75;2.50;;;;;10.91;68.83;99913.81;5019951;28;46280;-62
2023/01/08 05:45:49;;;;;;;;;1.00;1.00;;;;;10.91;68.86;99912.03;5021066;28;45390;-61
2023/01/08 05:48:14;;;;;;;;;0.00;0.00;;;;;10.89;68.79;99911.22;5021128;28;45377;-62
2023/01/08 05:50:39;;;;;;;;;1.00;1.00;;;;;10.96;68.60;99920.66;5021306;28;45509;-62
2023/01/08 05:53:06;;;;;;;;;0.00;0.00;;;;;10.99;68.98;99948.63;5036377;28;48153;-61
2023/01/08 05:55:32;;;;;;;;;0.00;0.00;;;;;10.93;68.74;99985.59;5021302;28;45335;-60
2023/01/08 05:58:01;;;;;;;;;2.00;1.00;;;;;10.88;68.57;99973.47;5022139;28;45358;-61
2023/01/08 06:00:26;;;;;;;;;0.00;0.00;;;;;10.77;68.51;99965.00;5021248;28;45499;-61
2023/01/08 06:02:52;;;;;;;;;0.00;0.00;;;;;10.67;68.11;99963.53;5020821;28;46126;-62
2023/01/08 06:05:17;;;;;;;;;1.00;0.00;;;;;10.57;67.77;99955.88;5021158;28;45273;-62
2023/01/08 06:07:42;;;;;;;;;0.00;0.00;;;;;10.43;67.95;99959.78;5033244;28;45310;-62
2023/01/08 06:10:08;;;;;;;;;1.00;1.00;;;;;10.33;67.85;99959.13;5020836;28;45239;-62
2023/01/08 06:12:33;;;;;;;;;0.00;0.00;;;;;10.20;67.83;99945.44;5020964;28;45356;-62
2023/01/08 06:14:58;;;;;;;;;0.00;0.00;;;;;10.13;67.93;99951.75;5019691;28;45737;-61
2023/01/08 06:17:23;;;;;;;;;0.00;0.00;;;;;10.04;67.78;99937.09;5020643;28;45359;-62
2023/01/08 06:19:49;;;;;;;;;0.00;0.00;;;;;9.97;67.87;99910.13;5019793;28;45486;-62
2023/01/08 06:22:14;;;;;;;;;0.00;0.00;;;;;9.92;68.07;99925.13;5021834;28;45392;-62
2023/01/08 06:24:39;;;;;;;;;1.00;1.00;;;;;9.84;67.97;99934.97;5020305;28;45384;-62
2023/01/08 06:27:05;;;;;;;;;0.00;0.00;;;;;9.82;68.17;99942.00;5021717;28;45292;-62
2023/01/08 06:29:30;;;;;;;;;0.00;0.00;;;;;9.76;68.29;99938.63;5021665;28;45659;-61
2023/01/08 06:31:55;;;;;;;;;0.00;0.00;;;;;9.73;68.16;99949.16;5021622;28;45156;-61
2023/01/08 06:34:21;;;;;;;;;0.00;0.00;;;;;9.65;68.24;99938.00;5021076;28;45316;-61
2023/01/08 06:36:46;;;;;;;;;0.00;0.00;;;;;9.62;68.47;99938.06;5021738;28;45622;-61
2023/01/08 06:39:12;;;;;;;;;1.00;0.00;;;;;9.49;68.16;99924.38;5021452;28;45328;-61
2023/01/08 06:41:37;;;;;;;;;0.00;0.00;;;;;9.53;68.19;99933.03;5020772;28;45340;-61
2023/01/08 06:44:03;;;;;;;;;0.00;0.00;;;;;9.50;68.25;99938.38;5021403;28;45434;-61
2023/01/08 06:46:28;;;;;;;;;0.25;0.00;;;;;9.43;68.59;99938.50;5021658;28;45257;-62
2023/01/08 06:48:54;;;;;;;;;0.00;0.00;;;;;9.44;68.64;99942.81;5021559;28;45220;-62
2023/01/08 06:51:19;;;;;;;;;1.00;1.00;;;;;9.38;68.45;99934.25;5021348;28;46127;-61
2023/01/08 06:53:47;;;;;;;;;0.25;0.25;;;;;9.39;68.50;99935.97;5021189;28;45261;-61
2023/01/08 06:56:12;;;;;;;;;0.50;0.00;;;;;9.39;68.89;99944.69;5020150;28;45274;-61
2023/01/08 06:58:38;;;;;;;;;0.00;0.00;;;;;9.38;68.99;99945.63;5021320;28;45235;-62
2023/01/08 07:01:04;;;;;;;;;0.25;0.25;;;;;9.41;68.97;99934.19;5019658;28;47143;-63
2023/01/08 07:03:33;;;;;;;;;2.00;1.00;;;;;9.43;69.22;99935.88;5020769;28;45343;-61
2023/01/08 07:06:01;;;;;;;;;2.00;1.00;;;;;9.40;69.55;99933.31;5019547;28;45339;-61
2023/01/08 07:08:27;;;;;;;;;0.50;0.50;;;;;9.47;69.45;99936.69;5019649;28;45551;-62
2023/01/08 07:10:53;;;;;;;;;0.50;0.50;;;;;9.44;69.58;99927.09;5024146;28;45580;-48
2023/01/08 07:13:19;;;;;;;;;1.00;1.00;;;;;9.53;69.67;99940.91;5020211;28;45510;-61
2023/01/08 07:15:45;;;;;;;;;0.75;0.75;;;;;9.57;69.94;99948.69;5020509;28;45389;-61
2023/01/08 07:18:12;;;;;;;;;1.00;1.00;;;;;9.56;70.08;99940.84;5018906;28;45453;-59
2023/01/08 07:20:38;;;;;;;;;1.75;1.00;;;;;9.70;69.59;99927.41;5021742;28;46164;-59
2023/01/08 07:23:05;;;;;;;;;0.25;0.25;;;;;9.67;70.25;99927.47;5018640;28;45408;-59
2023/01/08 07:25:31;;;;;;;;;1.25;0.25;;;;;9.70;70.11;99928.28;5019754;28;45247;-59
2023/01/08 07:27:57;;;;;;;;;0.50;0.50;;;;;9.71;69.91;99934.38;5020596;28;45171;-59
2023/01/08 07:30:23;;;;;;;;;0.50;0.50;;;;;9.74;70.45;99929.91;5020426;28;46493;-59
2023/01/08 07:32:49;;;;;;;;;1.00;1.00;;;;;9.80;69.99;99918.44;5018996;28;46185;-60
2023/01/08 07:35:14;;;;;;;;;1.75;0.25;;;;;9.83;69.98;99922.75;5035860;28;45289;-58
2023/01/08 07:37:41;;;;;;;;;1.00;0.00;;;;;9.83;70.34;99927.97;5020462;28;45522;-63
2023/01/08 07:40:09;;;;;;;;;1.00;0.00;;;;;9.84;70.06;99924.47;5019309;28;47629;-60
2023/01/08 07:42:34;;;;;;;;;2.50;1.00;;;;;9.90;70.04;99925.16;5019922;28;45273;-61
2023/01/08 07:45:00;;;;;;;;;1.25;1.00;;;;;9.89;70.17;99922.59;5022429;28;45272;-62
2023/01/08 07:47:26;;;;;;;;;1.00;1.00;;;;;9.92;69.94;99920.75;5019918;28;45337;-62
2023/01/08 07:49:51;;;;;;;;;1.25;1.00;;;;;9.96;70.09;99913.69;5018002;28;45574;-62
2023/01/08 07:52:17;;;;;;;;;1.00;1.00;;;;;10.00;70.15;99922.31;5019901;28;45499;-61
2023/01/08 07:54:42;;;;;;;;;0.75;0.75;;;;;10.03;69.82;99919.63;5018668;28;45591;-61
2023/01/08 07:57:08;;;;;;;;;1.00;1.00;;;;;10.09;69.85;99924.72;5020144;28;45443;-62
2023/01/08 07:59:33;;;;;;;;;1.75;1.00;;;;;10.13;69.62;99915.84;5019259;28;45988;-62
2023/01/08 08:01:59;;;;;;;;;1.25;1.00;;;;;10.12;69.74;99905.41;5018668;28;45353;-62
2023/01/08 08:04:24;;;;;;;;;1.00;1.00;;;;;10.13;69.76;99912.38;5019825;28;45553;-62
2023/01/08 08:06:50;;;;;;;;;1.25;0.50;;;;;10.16;69.77;99914.91;5018646;28;45467;-63
2023/01/08 08:09:16;;;;;;;;;1.00;0.00;;;;;10.17;69.55;99911.41;5018689;28;45377;-62
2023/01/08 08:11:42;;;;;;;;;0.50;0.50;;;;;10.13;69.52;99918.47;5019916;28;45301;-62
2023/01/08 08:14:08;;;;;;;;;1.00;0.00;;;;;10.07;69.59;99910.75;5020219;28;45342;-61
2023/01/08 08:16:33;;;;;;;;;1.25;0.25;;;;;10.11;69.60;99909.78;5019837;28;45328;-62
2023/01/08 08:18:59;;;;;;;;;0.00;0.00;;;;;10.06;69.54;99920.41;5018270;28;46538;-61
2023/01/08 08:21:24;;;;;;;;;1.50;0.00;;;;;10.05;69.70;99916.06;5019901;28;45286;-62
2023/01/08 08:23:50;;;;;;;;;1.50;0.50;;;;;10.04;69.78;99906.44;5020149;28;45428;-63
2023/01/08 08:26:15;;;;;;;;;0.00;0.00;;;;;10.02;69.40;99900.38;5019743;28;45191;-62
2023/01/08 08:28:41;;;;;;;;;0.75;0.75;;;;;10.02;69.31;99902.13;5019928;28;45203;-63
2023/01/08 08:31:06;;;;;;;;;2.50;0.00;;;;;10.09;69.58;99898.47;5019749;28;45237;-62
2023/01/08 08:33:32;;;;;;;;;0.00;0.00;;;;;10.04;69.66;99893.31;5019892;28;45225;-62
2023/01/08 08:35:57;;;;;;;;;0.25;0.25;;;;;10.04;69.45;99895.94;5019786;28;45151;-62
2023/01/08 08:38:24;;;;;;;;;0.00;0.00;;;;;9.98;69.26;99879.50;5018051;28;46635;-62
2023/01/08 08:40:49;;;;;;;;;0.00;0.00;;;;;10.01;69.51;99885.53;5018084;28;45464;-62
2023/01/08 08:43:15;;;;;;;;;0.00;0.00;;;;;10.08;69.40;99881.84;5019813;28;45257;-63
2023/01/08 08:45:40;;;;;;;;;1.00;1.00;;;;;10.12;69.31;99876.53;5019580;28;45329;-62
2023/01/08 08:48:07;;;;;;;;;0.00;0.00;;;;;10.12;69.09;99879.16;5018144;28;48200;-62
2023/01/08 08:50:33;;;;;;;;;0.50;0.00;;;;;10.06;69.36;99851.28;5019518;28;45320;-62
2023/01/08 08:53:03;;;;;;;;;0.75;0.75;;;;;10.17;69.26;99872.00;5019635;28;45519;-63
2023/01/08 08:55:28;;;;;;;;;0.00;0.00;;;;;10.08;68.87;99881.84;5019468;28;45447;-62
2023/01/08 08:57:54;;;;;;;;;0.00;0.00;;;;;10.07;69.10;99871.38;5019101;28;45344;-62
2023/01/08 09:00:19;;;;;;;;;1.00;0.00;;;;;10.16;68.90;99872.91;5019475;28;45324;-62
2023/01/08 09:02:45;;;;;;;;;2.00;0.00;;;;;10.17;68.97;99883.38;5019397;28;45311;-62
2023/01/08 09:05:10;;;;;;;;;1.00;1.00;;;;;10.13;69.05;99870.38;5021239;28;45378;-62
2023/01/08 09:07:36;;;;;;;;;0.25;0.25;;;;;10.23;68.84;99863.97;5022833;28;46315;-62
2023/01/08 09:10:02;;;;;;;;;1.00;0.75;;;;;10.26;68.74;99871.75;5022846;28;45328;-62
2023/01/08 09:12:28;;;;;;;;;0.25;0.25;;;;;10.27;68.73;99876.09;5021501;28;45406;-62
2023/01/08 09:14:55;;;;;;;;;0.00;0.00;;;;;10.39;68.76;99882.84;5021195;28;45601;-61
2023/01/08 09:17:21;;;;;;;;;1.00;1.00;;;;;10.44;68.83;99882.69;5020866;28;47195;-61
2023/01/08 09:19:46;;;;;;;;;1.00;0.00;;;;;10.53;68.56;99888.56;5020310;28;45357;-61
2023/01/08 09:22:12;;;;;;;;;1.75;1.75;;;;;10.55;68.75;99881.53;5020539;28;45285;-61
2023/01/08 09:24:37;;;;;;;;;0.00;0.00;;;;;10.59;68.51;99881.41;5021926;28;45371;-61
2023/01/08 09:27:02;;;;;;;;;2.75;0.00;;;;;10.70;68.54;99879.34;5021142;28;45300;-62
2023/01/08 09:29:28;;;;;;;;;2.75;2.00;;;;;10.83;68.27;99877.22;5020445;28;45444;-62
2023/01/08 09:31:54;;;;;;;;;0.00;0.00;;;;;10.86;68.29;99872.75;5021533;28;45436;-62
2023/01/08 09:34:19;;;;;;;;;2.00;0.75;;;;;10.81;68.30;99877.28;5021217;28;45579;-62
2023/01/08 09:36:45;;;;;;;;;0.75;0.75;;;;;10.90;68.17;99878.78;5021448;28;46291;-62
2023/01/08 09:39:10;;;;;;;;;1.25;0.50;;;;;11.01;68.03;99878.47;5020005;28;45393;-62
2023/01/08 09:41:41;;;;;;;;;1.00;1.00;;;;;11.04;68.29;99889.75;5012795;28;45442;-62
2023/01/08 09:44:06;;;;;;;;;0.00;0.00;;;;;11.01;68.15;99881.09;5001583;28;45943;-61
2023/01/08 09:46:33;;;;;;;;;1.00;1.00;;;;;11.10;68.11;99888.69;5000753;28;46062;-61
2023/01/08 09:49:05;;;;;;;;;1.00;1.00;;;;;11.16;67.72;99887.69;5000568;28;45497;-62
2023/01/08 09:51:34;;;;;;;;;0.75;0.75;;;;;11.12;68.04;99900.06;5000647;28;45437;-61
2023/01/08 09:54:00;;;;;;;;;2.25;0.00;;;;;11.12;68.00;99891.28;5001967;28;45330;-61
2023/01/08 09:56:26;;;;;;;;;0.00;0.00;;;;;11.10;68.07;99891.34;5000831;28;46076;-61
2023/01/08 09:58:57;;;;;;;;;1.25;0.50;;;;;11.07;68.29;99894.06;5002217;28;45432;-62
2023/01/08 10:01:27;;;;;;;;;1.50;0.00;;;;;11.08;68.20;99897.53;5002318;28;45306;-61
2023/01/08 10:04:02;;;;;;;;;3.00;1.00;;;;;11.10;68.31;99893.97;4994929;28;46283;-60
2023/01/08 10:06:29;;;;;;;;;0.50;0.00;;;;;11.12;68.14;99889.53;4995650;28;46062;-62
2023/01/08 10:08:55;;;;;;;;;0.00;0.00;;;;;11.08;68.28;99873.88;5002050;28;45460;-62
2023/01/08 10:11:22;;;;;;;;;2.00;1.00;;;;;11.01;68.62;99884.59;5001984;28;45324;-62
2023/01/08 10:13:56;;;;;;;;;0.50;0.25;;;;;11.09;68.04;99884.34;5002093;28;45256;-61
2023/01/08 10:16:32;;;;;;;;;0.00;0.00;;;;;11.12;68.22;99880.75;5000786;28;46249;-60
2023/01/08 10:18:58;;;;;;;;;1.75;0.00;;;;;11.08;68.53;99879.13;5001896;28;45253;-59
2023/01/08 10:21:31;;;;;;;;;3.00;1.50;;;;;11.08;68.32;99874.75;5001753;28;45339;-60
2023/01/08 10:23:57;;;;;;;;;3.00;1.00;;;;;11.21;67.82;99873.47;5001854;28;45394;-60
2023/01/08 10:26:38;;;;;;;;;1.50;1.50;;;;;11.15;68.13;99876.28;5001318;28;45977;-60
2023/01/08 10:29:17;;;;;;;;;5.00;1.00;;;;;11.21;67.92;99870.84;5002010;28;45398;-60
2023/01/08 10:31:49;;;;;;;;;1.50;0.00;;;;;11.22;67.88;99864.66;5000424;28;45255;-59
2023/01/08 10:34:24;;;;;;;;;0.75;0.75;;;;;11.20;67.91;99870.88;5001155;28;45433;-60
2023/01/08 10:36:52;;;;;;;;;2.00;2.00;;;;;11.17;68.09;99857.81;5001614;28;46238;-60
2023/01/08 10:39:26;;;;;;;;;4.00;0.75;;;;;11.22;67.92;99851.53;5001626;28;45230;-60
2023/01/08 10:41:55;;;;;;;;;4.00;2.75;;;;;11.28;67.72;99846.97;5002782;28;45337;-59
2023/01/08 10:44:23;;;;;;;;;2.75;1.50;;;;;11.19;68.02;99849.00;5021146;28;45398;-60
2023/01/08 10:46:53;;;;;;;;;1.25;1.25;;;;;11.33;67.71;99834.53;5021190;28;46134;-61
2023/01/08 10:49:38;;;;;;;;;5.50;1.75;;;;;11.36;67.65;99832.66;5020790;28;45352;-61
2023/01/08 10:52:04;;;;;;;;;2.00;1.00;;;;;11.50;67.59;99826.13;5021281;28;45221;-62
2023/01/08 10:54:35;;;;;;;;;2.50;1.00;;;;;11.55;67.59;99826.81;5021242;28;45486;-62
2023/01/08 10:57:02;;;;;;;;;1.00;1.00;;;;;11.60;67.62;99840.69;5020743;28;46149;-61
2023/01/08 10:59:27;;;;;;;;;1.50;1.00;;;;;11.57;67.58;99814.47;5021323;28;45182;-62
2023/01/08 11:01:56;;;;;;;;;1.25;1.00;;;;;11.67;67.31;99825.53;5021110;28;45218;-63
2023/01/08 11:04:31;;;;;;;;;0.50;0.50;;;;;11.67;68.31;99826.44;5020762;28;45387;-62
2023/01/08 11:07:02;;;;;;;;;3.75;0.25;;;;;11.73;67.43;99821.88;5020721;28;46067;-63
2023/01/08 11:09:31;;;;;;;;;2.00;2.00;;;;;11.82;67.15;99826.81;5019598;28;45266;-64
2023/01/08 11:11:58;;;;;;;;;1.00;1.00;;;;;11.86;66.88;99815.25;5020884;28;45384;-62
2023/01/08 11:14:32;;;;;;;;;2.75;2.75;;;;;11.93;67.06;99813.28;5020874;28;45333;-60
2023/01/08 11:16:58;;;;;;;;;2.00;1.00;;;;;11.97;66.81;99807.88;5020586;28;45438;-70
2023/01/08 11:19:30;;;;;;;;;5.50;2.75;;;;;11.96;67.08;99790.38;5005775;28;45601;-60
2023/01/08 11:22:00;;;;;;;;;0.75;0.25;;;;;12.08;66.70;99786.44;5030208;28;45469;-61
2023/01/08 11:24:29;;;;;;;;;1.00;1.00;;;;;12.16;66.75;99780.91;5020519;28;45191;-61
2023/01/08 11:27:10;;;;;;;;;2.25;2.25;;;;;12.21;67.32;99788.63;5014861;28;46879;-63
2023/01/08 11:29:44;;;;;;;;;3.00;2.00;;;;;12.28;66.93;99787.50;5017939;28;45337;-60
2023/01/08 11:32:18;;;;;;;;;3.00;1.25;;;;;12.30;67.36;99781.28;5018756;28;45423;-60